createdAt,value
2022-12-19T00:00:15.614Z,107.80
2022-12-19T00:01:15.622Z,106.80
2022-12-19T00:03:54.608Z,99.10
2022-12-19T00:04:55.435Z,104.60
2022-12-19T00:05:55.372Z,104.80
2022-12-19T00:06:55.277Z,106.50
2022-12-19T00:07:55.272Z,104.50
2022-12-19T00:08:55.150Z,112.70
2022-12-19T00:09:55.139Z,115.20
2022-12-19T00:10:55.030Z,105.70
2022-12-19T00:11:54.980Z,108.00
2022-12-19T00:12:54.916Z,107.00
2022-12-19T00:13:54.888Z,114.30
2022-12-19T00:14:54.817Z,112.00
2022-12-19T00:15:54.856Z,114.40
2022-12-19T00:16:54.687Z,120.90
2022-12-19T00:17:54.596Z,117.00
2022-12-19T00:18:55.209Z,109.10
2022-12-19T00:21:34.853Z,120.70
2022-12-19T00:22:34.354Z,131.30
2022-12-19T00:23:34.314Z,123.50
2022-12-19T00:24:34.251Z,121.70
2022-12-19T00:25:34.247Z,131.90
2022-12-19T00:26:34.109Z,116.40
2022-12-19T00:27:34.081Z,128.20
2022-12-19T00:28:33.993Z,138.10
2022-12-19T00:29:33.939Z,124.10
2022-12-19T00:30:33.842Z,131.00
2022-12-19T00:31:33.821Z,128.70
2022-12-19T00:32:33.786Z,127.80
2022-12-19T00:33:33.700Z,126.10
2022-12-19T00:34:33.614Z,118.40
2022-12-19T00:35:33.551Z,132.80
2022-12-19T00:36:33.458Z,126.90
2022-12-19T00:37:33.436Z,124.90
2022-12-19T00:38:33.385Z,126.90
2022-12-19T00:39:33.261Z,129.20
2022-12-19T00:40:33.222Z,128.20
2022-12-19T00:41:33.146Z,132.40
2022-12-19T00:42:33.100Z,125.40
2022-12-19T00:43:33.050Z,127.50
2022-12-19T00:44:32.948Z,132.10
2022-12-19T00:45:32.960Z,132.50
2022-12-19T00:46:32.890Z,126.00
2022-12-19T00:47:32.919Z,136.00
2022-12-19T00:48:32.709Z,127.10
2022-12-19T00:49:32.643Z,126.20
2022-12-19T00:50:32.620Z,131.50
2022-12-19T00:51:32.490Z,134.50
2022-12-19T00:52:32.448Z,132.10
2022-12-19T00:53:32.398Z,128.30
2022-12-19T00:54:32.442Z,123.30
2022-12-19T00:55:32.267Z,118.90
2022-12-19T00:57:41.404Z,132.10
2022-12-19T00:58:46.791Z,135.20
2022-12-19T00:59:42.289Z,119.50
2022-12-19T01:00:43.302Z,132.40
2022-12-19T01:01:42.324Z,125.90
2022-12-19T01:02:42.238Z,129.80
2022-12-19T01:03:58.016Z,119.40
2022-12-19T01:04:42.201Z,129.40
2022-12-19T01:05:42.107Z,126.50
2022-12-19T01:06:41.830Z,129.20
2022-12-19T01:07:41.790Z,129.60
2022-12-19T01:08:41.716Z,132.10
2022-12-19T01:09:41.696Z,136.60
2022-12-19T01:10:41.546Z,135.00
2022-12-19T01:11:41.515Z,135.70
2022-12-19T01:12:41.466Z,151.60
2022-12-19T01:13:41.376Z,138.80
2022-12-19T01:15:04.688Z,146.70
2022-12-19T01:15:41.281Z,148.00
2022-12-19T01:16:41.251Z,136.30
2022-12-19T01:17:43.980Z,119.30
2022-12-19T01:18:41.031Z,138.10
2022-12-19T01:19:44.308Z,122.90
2022-12-19T01:20:40.937Z,152.20
2022-12-19T01:21:40.889Z,146.00
2022-12-19T01:22:40.831Z,134.80
2022-12-19T01:23:40.722Z,143.40
2022-12-19T01:24:40.698Z,145.30
2022-12-19T01:25:41.592Z,144.40
2022-12-19T01:26:40.580Z,140.80
2022-12-19T01:27:40.492Z,158.90
2022-12-19T01:28:40.387Z,144.90
2022-12-19T01:29:52.107Z,155.40
2022-12-19T01:30:40.307Z,164.80
2022-12-19T01:31:40.289Z,164.50
2022-12-19T01:32:40.177Z,151.40
2022-12-19T01:33:40.058Z,163.10
2022-12-19T01:34:40.060Z,156.80
2022-12-19T01:35:39.940Z,159.10
2022-12-19T01:36:40.422Z,150.50
2022-12-19T01:37:39.858Z,158.20
2022-12-19T01:38:39.775Z,148.40
2022-12-19T01:39:39.707Z,165.60
2022-12-19T01:40:39.609Z,177.90
2022-12-19T01:41:39.584Z,163.00
2022-12-19T01:42:39.544Z,161.00
2022-12-19T01:43:39.449Z,176.00
2022-12-19T01:44:39.420Z,171.10
2022-12-19T01:45:45.419Z,155.00
2022-12-19T01:46:39.284Z,159.80
2022-12-19T01:47:39.216Z,162.50
2022-12-19T01:48:39.123Z,159.70
2022-12-19T01:49:39.055Z,140.50
2022-12-19T01:51:01.605Z,146.10
2022-12-19T01:51:38.934Z,147.40
2022-12-19T01:52:38.871Z,143.50
2022-12-19T01:53:48.756Z,152.10
2022-12-19T01:54:38.739Z,153.40
2022-12-19T01:55:38.649Z,147.20
2022-12-19T01:56:38.598Z,142.40
2022-12-19T01:57:38.507Z,153.50
2022-12-19T01:58:38.444Z,155.90
2022-12-19T01:59:38.383Z,156.20
2022-12-19T02:00:38.356Z,151.70
2022-12-19T02:01:47.677Z,157.80
2022-12-19T02:02:40.348Z,153.40
2022-12-19T02:03:38.159Z,138.10
2022-12-19T02:04:38.088Z,165.50
2022-12-19T02:05:38.000Z,157.20
2022-12-19T02:06:37.942Z,166.80
2022-12-19T02:07:37.837Z,156.70
2022-12-19T02:08:58.757Z,160.90
2022-12-19T02:09:37.749Z,147.30
2022-12-19T02:10:37.673Z,164.20
2022-12-19T02:11:37.624Z,152.30
2022-12-19T02:12:37.521Z,161.90
2022-12-19T02:13:37.519Z,161.00
2022-12-19T02:14:37.443Z,163.10
2022-12-19T02:15:37.332Z,155.40
2022-12-19T02:16:37.366Z,153.40
2022-12-19T02:17:37.225Z,158.80
2022-12-19T02:18:37.130Z,157.10
2022-12-19T02:19:37.072Z,157.60
2022-12-19T02:20:37.054Z,159.30
2022-12-19T02:21:36.971Z,160.80
2022-12-19T02:22:36.944Z,155.10
2022-12-19T02:23:36.850Z,142.90
2022-12-19T02:24:36.789Z,152.60
2022-12-19T02:25:36.715Z,158.30
2022-12-19T02:26:36.689Z,156.10
2022-12-19T02:27:40.098Z,154.10
2022-12-19T02:28:36.504Z,154.50
2022-12-19T02:29:36.463Z,158.40
2022-12-19T02:30:36.370Z,143.90
2022-12-19T02:31:36.353Z,148.50
2022-12-19T02:32:36.439Z,164.90
2022-12-19T02:33:36.174Z,162.40
2022-12-19T02:34:38.844Z,150.00
2022-12-19T02:35:36.078Z,152.50
2022-12-19T02:36:38.951Z,152.60
2022-12-19T02:37:35.956Z,159.40
2022-12-19T02:38:35.880Z,151.30
2022-12-19T02:39:35.860Z,148.90
2022-12-19T02:40:35.786Z,146.90
2022-12-19T02:41:35.690Z,154.20
2022-12-19T02:42:35.657Z,157.90
2022-12-19T02:43:35.538Z,153.40
2022-12-19T02:44:35.535Z,145.00
2022-12-19T02:45:35.458Z,159.80
2022-12-19T02:46:35.365Z,155.50
2022-12-19T02:47:35.308Z,150.10
2022-12-19T02:48:35.287Z,134.80
2022-12-19T02:49:35.182Z,149.70
2022-12-19T02:50:35.124Z,155.00
2022-12-19T02:51:35.059Z,143.30
2022-12-19T02:52:34.991Z,150.10
2022-12-19T02:53:34.897Z,159.10
2022-12-19T02:54:34.831Z,158.80
2022-12-19T02:55:34.771Z,145.10
2022-12-19T02:56:34.738Z,151.00
2022-12-19T02:57:34.666Z,158.70
2022-12-19T02:58:34.631Z,144.40
2022-12-19T02:59:34.550Z,154.30
2022-12-19T03:00:34.531Z,155.00
2022-12-19T03:01:34.494Z,168.90
2022-12-19T03:02:34.529Z,172.40
2022-12-19T03:03:34.355Z,167.30
2022-12-19T03:04:34.243Z,163.00
2022-12-19T03:05:34.185Z,158.00
2022-12-19T03:06:34.125Z,158.40
2022-12-19T03:07:34.049Z,148.70
2022-12-19T03:08:34.267Z,149.40
2022-12-19T03:09:33.899Z,155.10
2022-12-19T03:10:33.815Z,155.00
2022-12-19T03:11:33.805Z,160.90
2022-12-19T03:12:33.700Z,156.30
2022-12-19T03:13:33.677Z,162.10
2022-12-19T03:14:33.582Z,167.60
2022-12-19T03:15:33.537Z,143.70
2022-12-19T03:16:33.460Z,143.00
2022-12-19T03:17:33.412Z,159.90
2022-12-19T03:18:33.339Z,150.80
2022-12-19T03:19:33.262Z,152.70
2022-12-19T03:20:54.175Z,151.00
2022-12-19T03:21:33.158Z,153.20
2022-12-19T03:22:33.093Z,164.30
2022-12-19T03:23:33.004Z,155.10
2022-12-19T03:24:33.013Z,151.30
2022-12-19T03:25:32.876Z,146.10
2022-12-19T03:26:32.860Z,155.00
2022-12-19T03:27:32.761Z,148.00
2022-12-19T03:28:32.676Z,149.30
2022-12-19T03:29:32.679Z,131.10
2022-12-19T03:30:53.581Z,145.30
2022-12-19T03:31:32.520Z,143.30
2022-12-19T03:32:32.433Z,137.70
2022-12-19T03:33:32.399Z,136.90
2022-12-19T03:34:32.343Z,140.40
2022-12-19T03:35:32.228Z,141.10
2022-12-19T03:36:32.159Z,145.10
2022-12-19T03:37:32.097Z,134.50
2022-12-19T03:38:53.044Z,137.90
2022-12-19T03:39:31.972Z,148.90
2022-12-19T03:40:31.876Z,137.70
2022-12-19T03:41:31.829Z,136.70
2022-12-19T03:42:31.778Z,135.40
2022-12-19T03:43:31.811Z,132.80
2022-12-19T03:44:31.651Z,136.20
2022-12-19T03:45:31.611Z,140.90
2022-12-19T03:46:31.526Z,135.20
2022-12-19T03:47:31.467Z,136.50
2022-12-19T03:48:31.401Z,129.40
2022-12-19T03:49:31.351Z,140.30
2022-12-19T03:50:31.283Z,125.20
2022-12-19T03:51:31.200Z,144.50
2022-12-19T03:52:31.166Z,140.20
2022-12-19T03:53:31.076Z,142.30
2022-12-19T03:54:30.981Z,134.00
2022-12-19T03:55:30.969Z,133.70
2022-12-19T03:56:51.867Z,139.40
2022-12-19T03:57:30.845Z,139.70
2022-12-19T03:58:30.731Z,141.90
2022-12-19T03:59:30.694Z,143.70
2022-12-19T04:00:30.620Z,134.90
2022-12-19T04:01:30.652Z,138.20
2022-12-19T04:02:30.595Z,149.50
2022-12-19T04:03:30.511Z,139.50
2022-12-19T04:04:30.353Z,136.70
2022-12-19T04:05:30.276Z,139.40
2022-12-19T04:06:30.274Z,133.60
2022-12-19T04:07:30.217Z,134.90
2022-12-19T04:08:30.135Z,130.60
2022-12-19T04:09:30.014Z,134.20
2022-12-19T04:10:29.992Z,136.20
2022-12-19T04:11:29.934Z,135.40
2022-12-19T04:12:29.870Z,134.60
2022-12-19T04:13:29.817Z,124.80
2022-12-19T04:14:50.796Z,131.20
2022-12-19T04:15:29.693Z,129.90
2022-12-19T04:16:29.576Z,130.90
2022-12-19T04:17:29.547Z,121.70
2022-12-19T04:18:29.490Z,126.10
2022-12-19T04:19:29.465Z,125.20
2022-12-19T04:20:29.330Z,129.20
2022-12-19T04:21:29.302Z,131.50
2022-12-19T04:22:29.220Z,127.80
2022-12-19T04:23:29.128Z,123.60
2022-12-19T04:24:29.111Z,124.70
2022-12-19T04:25:29.724Z,129.00
2022-12-19T04:26:28.967Z,124.90
2022-12-19T04:27:28.859Z,130.80
2022-12-19T04:28:28.805Z,129.80
2022-12-19T04:29:28.765Z,132.60
2022-12-19T04:30:28.678Z,135.20
2022-12-19T04:31:28.662Z,121.40
2022-12-19T04:32:28.615Z,131.70
2022-12-19T04:33:28.497Z,127.80
2022-12-19T04:34:28.461Z,131.00
2022-12-19T04:35:28.392Z,119.70
2022-12-19T04:36:28.283Z,122.40
2022-12-19T04:37:28.235Z,129.40
2022-12-19T04:38:28.194Z,123.40
2022-12-19T04:39:28.085Z,130.40
2022-12-19T04:40:28.073Z,132.00
2022-12-19T04:41:27.975Z,121.40
2022-12-19T04:42:27.915Z,121.60
2022-12-19T04:43:27.859Z,130.50
2022-12-19T04:44:27.797Z,122.40
2022-12-19T04:45:27.747Z,131.00
2022-12-19T04:46:27.699Z,135.50
2022-12-19T04:47:27.593Z,119.00
2022-12-19T04:48:27.561Z,122.40
2022-12-19T04:49:27.468Z,134.10
2022-12-19T04:50:27.423Z,120.10
2022-12-19T04:51:27.330Z,120.60
2022-12-19T04:52:27.313Z,123.00
2022-12-19T04:53:27.245Z,125.70
2022-12-19T04:54:27.156Z,128.60
2022-12-19T04:55:27.095Z,127.50
2022-12-19T04:56:27.028Z,119.90
2022-12-19T04:57:26.978Z,123.40
2022-12-19T04:58:26.861Z,123.60
2022-12-19T04:59:26.850Z,125.40
2022-12-19T05:00:26.761Z,125.90
2022-12-19T05:01:26.752Z,122.20
2022-12-19T05:02:26.844Z,121.40
2022-12-19T05:03:26.609Z,124.20
2022-12-19T05:04:26.498Z,127.30
2022-12-19T05:05:26.457Z,134.90
2022-12-19T05:06:26.365Z,141.20
2022-12-19T05:07:26.322Z,145.80
2022-12-19T05:08:26.263Z,147.00
2022-12-19T05:09:26.177Z,137.80
2022-12-19T05:10:26.106Z,139.10
2022-12-19T05:11:26.032Z,135.20
2022-12-19T05:12:25.954Z,140.80
2022-12-19T05:13:25.927Z,134.40
2022-12-19T05:14:25.902Z,150.10
2022-12-19T05:15:25.810Z,140.70
2022-12-19T05:16:25.757Z,140.20
2022-12-19T05:17:25.661Z,146.00
2022-12-19T05:18:25.578Z,137.30
2022-12-19T05:19:25.532Z,131.80
2022-12-19T05:20:25.961Z,139.70
2022-12-19T05:21:25.429Z,142.30
2022-12-19T05:22:25.366Z,147.80
2022-12-19T05:23:25.250Z,159.30
2022-12-19T05:24:25.231Z,164.40
2022-12-19T05:25:25.165Z,160.60
2022-12-19T05:26:46.057Z,157.30
2022-12-19T05:27:25.041Z,170.70
2022-12-19T05:28:24.927Z,164.00
2022-12-19T05:29:24.881Z,153.10
2022-12-19T05:30:24.768Z,162.10
2022-12-19T05:31:24.831Z,152.30
2022-12-19T05:32:24.686Z,167.90
2022-12-19T05:33:24.628Z,156.70
2022-12-19T05:34:24.556Z,158.80
2022-12-19T05:35:24.498Z,155.30
2022-12-19T05:36:29.041Z,144.50
2022-12-19T05:37:24.376Z,162.60
2022-12-19T05:38:24.287Z,155.00
2022-12-19T05:39:24.210Z,156.00
2022-12-19T05:40:24.197Z,155.70
2022-12-19T05:41:24.138Z,164.80
2022-12-19T05:42:24.071Z,160.80
2022-12-19T05:43:23.958Z,172.10
2022-12-19T05:44:23.922Z,171.80
2022-12-19T05:45:23.847Z,166.80
2022-12-19T05:46:23.832Z,167.20
2022-12-19T05:47:23.725Z,163.70
2022-12-19T05:48:23.662Z,170.70
2022-12-19T05:49:23.647Z,172.60
2022-12-19T05:50:23.538Z,172.90
2022-12-19T05:51:23.488Z,158.50
2022-12-19T05:52:23.427Z,170.40
2022-12-19T05:53:26.062Z,198.50
2022-12-19T05:54:23.264Z,181.80
2022-12-19T05:55:23.209Z,182.50
2022-12-19T05:56:23.175Z,176.00
2022-12-19T05:57:23.047Z,190.30
2022-12-19T05:58:23.014Z,191.90
2022-12-19T05:59:22.944Z,212.00
2022-12-19T06:00:22.918Z,199.00
2022-12-19T06:01:22.880Z,208.80
2022-12-19T06:02:43.903Z,230.90
2022-12-19T06:03:22.785Z,215.30
2022-12-19T06:04:22.625Z,227.30
2022-12-19T06:05:22.532Z,209.00
2022-12-19T06:06:22.498Z,202.50
2022-12-19T06:07:22.462Z,210.90
2022-12-19T06:08:22.410Z,204.70
2022-12-19T06:09:22.298Z,211.20
2022-12-19T06:10:22.228Z,210.60
2022-12-19T06:11:22.208Z,214.20
2022-12-19T06:12:22.128Z,211.70
2022-12-19T06:13:25.033Z,209.10
2022-12-19T06:14:21.988Z,210.50
2022-12-19T06:15:21.917Z,204.50
2022-12-19T06:16:21.924Z,207.80
2022-12-19T06:17:21.807Z,218.20
2022-12-19T06:18:21.715Z,199.80
2022-12-19T06:19:21.655Z,204.50
2022-12-19T06:20:42.551Z,210.60
2022-12-19T06:21:21.530Z,201.20
2022-12-19T06:22:21.464Z,212.10
2022-12-19T06:23:21.382Z,199.90
2022-12-19T06:24:21.337Z,180.20
2022-12-19T06:25:21.303Z,193.10
2022-12-19T06:26:21.239Z,194.60
2022-12-19T06:27:21.118Z,183.30
2022-12-19T06:28:21.103Z,202.20
2022-12-19T06:29:21.013Z,199.00
2022-12-19T06:30:20.970Z,211.70
2022-12-19T06:31:20.930Z,219.40
2022-12-19T06:32:20.815Z,228.20
2022-12-19T06:33:20.728Z,223.20
2022-12-19T06:34:46.968Z,240.00
2022-12-19T06:35:20.673Z,236.40
2022-12-19T06:36:20.547Z,221.20
2022-12-19T06:37:20.504Z,216.70
2022-12-19T06:38:41.471Z,249.00
2022-12-19T06:39:20.362Z,234.20
2022-12-19T06:40:20.307Z,236.50
2022-12-19T06:41:20.259Z,224.00
2022-12-19T06:42:20.162Z,235.80
2022-12-19T06:43:20.076Z,255.20
2022-12-19T06:44:20.061Z,241.00
2022-12-19T06:45:19.983Z,238.40
2022-12-19T06:46:20.018Z,235.70
2022-12-19T06:47:19.850Z,235.70
2022-12-19T06:48:19.759Z,244.20
2022-12-19T06:49:19.719Z,243.90
2022-12-19T06:50:19.709Z,232.60
2022-12-19T06:51:19.587Z,236.90
2022-12-19T06:52:19.527Z,216.60
2022-12-19T06:53:19.485Z,256.70
2022-12-19T06:54:19.457Z,248.60
2022-12-19T06:55:19.305Z,236.40
2022-12-19T06:56:19.301Z,228.70
2022-12-19T06:57:19.206Z,240.00
2022-12-19T06:58:23.995Z,215.90
2022-12-19T06:59:19.104Z,223.30
2022-12-19T07:00:18.985Z,222.50
2022-12-19T07:01:19.078Z,233.40
2022-12-19T07:02:18.975Z,217.70
2022-12-19T07:03:18.842Z,220.60
2022-12-19T07:04:18.731Z,217.00
2022-12-19T07:05:18.654Z,225.90
2022-12-19T07:06:18.568Z,223.60
2022-12-19T07:07:18.485Z,192.40
2022-12-19T07:08:18.495Z,219.80
2022-12-19T07:09:18.387Z,228.60
2022-12-19T07:10:18.352Z,227.60
2022-12-19T07:11:18.254Z,225.10
2022-12-19T07:12:18.183Z,218.60
2022-12-19T07:13:18.115Z,209.80
2022-12-19T07:14:39.067Z,214.30
2022-12-19T07:15:17.987Z,225.30
2022-12-19T07:16:17.985Z,219.10
2022-12-19T07:17:17.862Z,219.90
2022-12-19T07:18:17.773Z,215.80
2022-12-19T07:19:17.734Z,220.50
2022-12-19T07:20:17.735Z,228.40
2022-12-19T07:21:17.577Z,231.30
2022-12-19T07:22:17.540Z,244.20
2022-12-19T07:23:17.449Z,244.00
2022-12-19T07:24:17.437Z,234.40
2022-12-19T07:25:17.343Z,232.60
2022-12-19T07:27:35.214Z,213.70
2022-12-19T07:28:27.420Z,225.30
2022-12-19T07:29:27.351Z,222.20
2022-12-19T07:30:27.255Z,219.70
2022-12-19T07:31:27.278Z,230.60
2022-12-19T07:32:48.126Z,195.50
2022-12-19T07:33:27.086Z,219.00
2022-12-19T07:34:27.028Z,220.50
2022-12-19T07:35:26.994Z,211.90
2022-12-19T07:36:26.897Z,206.10
2022-12-19T07:37:26.832Z,213.00
2022-12-19T07:38:26.775Z,203.40
2022-12-19T07:39:26.704Z,208.20
2022-12-19T07:40:26.644Z,187.40
2022-12-19T07:41:26.586Z,190.80
2022-12-19T07:42:30.865Z,179.00
2022-12-19T07:43:26.475Z,193.40
2022-12-19T07:44:26.372Z,195.80
2022-12-19T07:45:26.324Z,199.90
2022-12-19T07:46:26.256Z,197.60
2022-12-19T07:47:26.221Z,220.70
2022-12-19T07:48:26.134Z,217.70
2022-12-19T07:49:26.072Z,242.40
2022-12-19T07:50:46.971Z,217.60
2022-12-19T07:51:25.910Z,223.30
2022-12-19T07:52:25.842Z,249.50
2022-12-19T07:53:25.828Z,214.90
2022-12-19T07:54:25.729Z,223.40
2022-12-19T07:55:25.684Z,242.60
2022-12-19T07:56:25.665Z,244.60
2022-12-19T07:57:25.531Z,255.80
2022-12-19T07:58:25.486Z,261.50
2022-12-19T07:59:30.338Z,242.60
2022-12-19T08:00:25.340Z,239.50
2022-12-19T08:01:25.422Z,223.90
2022-12-19T08:02:25.375Z,225.30
2022-12-19T08:03:25.184Z,219.80
2022-12-19T08:04:25.064Z,212.90
2022-12-19T08:05:26.857Z,216.30
2022-12-19T08:06:24.969Z,219.50
2022-12-19T08:07:24.921Z,223.00
2022-12-19T08:08:24.813Z,239.80
2022-12-19T08:09:24.743Z,240.80
2022-12-19T08:10:24.729Z,233.90
2022-12-19T08:11:24.636Z,223.80
2022-12-19T08:12:24.574Z,234.40
2022-12-19T08:13:24.565Z,224.30
2022-12-19T08:14:24.461Z,221.20
2022-12-19T08:15:24.367Z,213.10
2022-12-19T08:16:24.391Z,202.50
2022-12-19T08:17:24.314Z,223.20
2022-12-19T08:18:24.201Z,225.80
2022-12-19T08:19:27.444Z,251.20
2022-12-19T08:20:24.104Z,221.00
2022-12-19T08:21:23.975Z,223.20
2022-12-19T08:22:23.930Z,196.60
2022-12-19T08:23:23.868Z,224.60
2022-12-19T08:24:23.772Z,218.20
2022-12-19T08:25:23.737Z,230.90
2022-12-19T08:26:23.697Z,223.60
2022-12-19T08:27:23.604Z,217.10
2022-12-19T08:28:23.571Z,226.70
2022-12-19T08:29:23.454Z,212.00
2022-12-19T08:30:23.412Z,225.10
2022-12-19T08:31:23.452Z,224.30
2022-12-19T08:32:23.319Z,213.10
2022-12-19T08:33:23.224Z,206.40
2022-12-19T08:34:23.187Z,236.70
2022-12-19T08:35:23.089Z,234.40
2022-12-19T08:36:23.034Z,212.80
2022-12-19T08:37:22.974Z,235.20
2022-12-19T08:38:22.924Z,235.90
2022-12-19T08:39:22.837Z,204.50
2022-12-19T08:40:22.800Z,219.30
2022-12-19T08:41:22.723Z,199.00
2022-12-19T08:42:22.616Z,245.00
2022-12-19T08:43:22.588Z,212.70
2022-12-19T08:44:43.528Z,201.20
2022-12-19T08:45:22.454Z,215.10
2022-12-19T08:46:22.445Z,207.60
2022-12-19T08:47:22.320Z,211.30
2022-12-19T08:48:22.241Z,250.90
2022-12-19T08:49:22.375Z,221.60
2022-12-19T08:50:22.169Z,198.90
2022-12-19T08:51:22.033Z,205.90
2022-12-19T08:52:22.026Z,207.10
2022-12-19T08:53:26.281Z,227.40
2022-12-19T08:54:21.888Z,217.90
2022-12-19T08:55:21.809Z,210.40
2022-12-19T08:56:21.833Z,190.30
2022-12-19T08:57:21.671Z,195.30
2022-12-19T08:58:21.609Z,193.40
2022-12-19T08:59:30.894Z,204.90
2022-12-19T09:00:21.494Z,199.60
2022-12-19T09:01:21.496Z,190.90
2022-12-19T09:06:02.071Z,224.60
2022-12-19T09:06:19.399Z,217.80
2022-12-19T09:06:30.964Z,193.90
2022-12-19T09:07:30.798Z,199.50
2022-12-19T09:08:30.802Z,195.70
2022-12-19T09:09:30.695Z,200.10
2022-12-19T09:10:30.646Z,196.70
2022-12-19T09:11:30.549Z,181.70
2022-12-19T09:12:30.464Z,190.10
2022-12-19T09:13:30.458Z,194.30
2022-12-19T09:14:30.371Z,215.30
2022-12-19T09:15:30.286Z,223.10
2022-12-19T09:16:30.280Z,203.00
2022-12-19T09:17:30.214Z,193.70
2022-12-19T09:18:30.103Z,179.70
2022-12-19T09:19:30.062Z,189.20
2022-12-19T09:20:29.984Z,217.40
2022-12-19T09:21:30.137Z,191.40
2022-12-19T09:22:29.837Z,205.50
2022-12-19T09:23:29.751Z,202.30
2022-12-19T09:24:29.745Z,190.50
2022-12-19T09:25:29.626Z,219.10
2022-12-19T09:26:33.051Z,217.80
2022-12-19T09:27:29.532Z,202.60
2022-12-19T09:28:29.487Z,182.70
2022-12-19T09:29:33.612Z,211.70
2022-12-19T09:30:29.333Z,198.80
2022-12-19T09:31:29.360Z,198.80
2022-12-19T09:32:50.950Z,201.10
2022-12-19T09:33:29.215Z,191.90
2022-12-19T09:34:38.176Z,189.30
2022-12-19T09:35:30.667Z,205.50
2022-12-19T09:36:28.919Z,194.60
2022-12-19T09:37:28.857Z,207.90
2022-12-19T09:38:28.853Z,195.10
2022-12-19T09:39:28.719Z,205.10
2022-12-19T09:40:28.700Z,209.70
2022-12-19T09:41:28.613Z,195.20
2022-12-19T09:42:28.544Z,181.20
2022-12-19T09:43:28.465Z,207.40
2022-12-19T09:44:28.441Z,186.30
2022-12-19T09:45:31.723Z,187.00
2022-12-19T09:46:28.336Z,184.80
2022-12-19T09:47:28.247Z,171.40
2022-12-19T09:48:28.167Z,185.80
2022-12-19T09:49:28.100Z,169.50
2022-12-19T09:50:28.036Z,197.80
2022-12-19T09:51:27.969Z,224.20
2022-12-19T09:52:29.835Z,214.30
2022-12-19T09:53:27.915Z,211.10
2022-12-19T09:54:27.803Z,223.20
2022-12-19T09:55:27.720Z,228.20
2022-12-19T09:56:48.665Z,248.20
2022-12-19T09:57:27.559Z,247.00
2022-12-19T09:58:27.524Z,248.20
2022-12-19T09:59:28.367Z,228.90
2022-12-19T10:00:27.399Z,238.60
2022-12-19T10:01:27.516Z,253.00
2022-12-19T10:02:27.588Z,248.80
2022-12-19T10:03:27.213Z,252.50
2022-12-19T10:04:27.131Z,228.70
2022-12-19T10:06:20.296Z,263.50
2022-12-19T10:07:47.105Z,257.00
2022-12-19T10:08:09.610Z,237.90
2022-12-19T10:08:30.859Z,222.40
2022-12-19T10:11:58.893Z,223.20
2022-12-19T10:12:53.144Z,243.30
2022-12-19T10:13:03.666Z,255.20
2022-12-19T10:15:08.962Z,217.90
2022-12-19T10:16:09.829Z,233.20
2022-12-19T10:17:24.037Z,227.10
2022-12-19T10:18:09.694Z,237.10
2022-12-19T10:19:09.606Z,236.60
2022-12-19T10:20:09.522Z,225.50
2022-12-19T10:21:09.467Z,247.30
2022-12-19T10:22:18.358Z,219.70
2022-12-19T10:23:09.336Z,224.50
2022-12-19T10:24:09.308Z,221.00
2022-12-19T10:25:09.871Z,215.60
2022-12-19T10:26:09.169Z,233.20
2022-12-19T10:27:09.085Z,238.60
2022-12-19T10:28:08.983Z,224.30
2022-12-19T10:29:09.030Z,247.40
2022-12-19T10:30:08.884Z,245.50
2022-12-19T10:31:15.530Z,251.30
2022-12-19T10:32:08.808Z,256.00
2022-12-19T10:33:11.816Z,263.10
2022-12-19T10:34:08.630Z,256.80
2022-12-19T10:35:08.533Z,296.70
2022-12-19T10:36:08.498Z,272.60
2022-12-19T10:37:29.380Z,272.20
2022-12-19T10:38:08.407Z,292.10
2022-12-19T10:39:08.356Z,266.30
2022-12-19T10:40:11.709Z,300.80
2022-12-19T10:41:08.208Z,262.70
2022-12-19T10:42:08.158Z,279.50
2022-12-19T10:43:11.585Z,275.30
2022-12-19T10:44:08.033Z,269.60
2022-12-19T10:45:07.898Z,287.80
2022-12-19T10:46:07.979Z,268.90
2022-12-19T10:47:07.886Z,280.80
2022-12-19T10:48:07.751Z,287.40
2022-12-19T10:49:07.706Z,268.50
2022-12-19T10:50:09.885Z,280.70
2022-12-19T10:51:07.504Z,242.70
2022-12-19T10:52:07.456Z,264.80
2022-12-19T10:53:07.467Z,265.20
2022-12-19T10:54:07.303Z,247.30
2022-12-19T10:55:07.248Z,240.20
2022-12-19T10:56:07.245Z,244.70
2022-12-19T10:57:07.253Z,222.00
2022-12-19T10:58:07.056Z,206.10
2022-12-19T10:59:07.326Z,240.70
2022-12-19T11:00:06.978Z,227.70
2022-12-19T11:01:06.860Z,207.20
2022-12-19T11:02:11.384Z,229.00
2022-12-19T11:03:06.871Z,213.20
2022-12-19T11:04:06.742Z,215.60
2022-12-19T11:05:06.716Z,212.10
2022-12-19T11:06:06.560Z,205.60
2022-12-19T11:07:06.536Z,224.60
2022-12-19T11:08:27.423Z,233.00
2022-12-19T11:09:06.373Z,228.40
2022-12-19T11:10:54.076Z,253.10
2022-12-19T11:16:53.656Z,235.80
2022-12-19T11:29:34.556Z,238.00
2022-12-19T11:32:46.520Z,242.00
2022-12-19T11:33:05.245Z,272.50
2022-12-19T11:34:05.081Z,287.00
2022-12-19T11:35:05.134Z,251.20
2022-12-19T11:36:04.975Z,281.90
2022-12-19T11:37:04.874Z,291.00
2022-12-19T11:38:04.772Z,304.40
2022-12-19T11:39:04.732Z,271.70
2022-12-19T11:40:04.661Z,316.30
2022-12-19T11:41:04.645Z,285.50
2022-12-19T11:42:04.566Z,286.90
2022-12-19T11:43:42.571Z,275.70
2022-12-19T11:44:04.473Z,263.40
2022-12-19T11:45:04.345Z,266.50
2022-12-19T11:46:04.337Z,290.50
2022-12-19T11:47:04.254Z,284.30
2022-12-19T11:48:04.149Z,273.70
2022-12-19T11:49:04.083Z,272.50
2022-12-19T11:50:04.020Z,261.30
2022-12-19T11:51:03.976Z,276.60
2022-12-19T11:52:03.869Z,261.90
2022-12-19T11:53:07.736Z,240.20
2022-12-19T11:54:03.838Z,266.10
2022-12-19T11:55:03.708Z,262.00
2022-12-19T11:56:03.629Z,268.30
2022-12-19T11:57:03.591Z,252.40
2022-12-19T11:58:03.527Z,268.80
2022-12-19T11:59:03.443Z,258.20
2022-12-19T12:00:05.731Z,238.60
2022-12-19T12:01:03.347Z,250.00
2022-12-19T12:02:03.338Z,269.90
2022-12-19T12:03:03.233Z,270.00
2022-12-19T12:04:03.500Z,259.30
2022-12-19T12:05:03.127Z,253.80
2022-12-19T12:06:03.011Z,254.50
2022-12-19T12:10:17.031Z,246.50
2022-12-19T12:26:15.033Z,283.30
2022-12-19T12:35:54.201Z,284.20
2022-12-19T12:38:24.612Z,285.70
2022-12-19T12:39:03.916Z,285.80
2022-12-19T12:40:03.745Z,274.10
2022-12-19T12:41:03.716Z,300.10
2022-12-19T12:42:03.650Z,297.60
2022-12-19T12:43:03.529Z,305.70
2022-12-19T12:44:03.473Z,273.30
2022-12-19T12:45:03.398Z,293.10
2022-12-19T12:46:03.515Z,266.80
2022-12-19T12:47:03.293Z,281.80
2022-12-19T12:48:24.202Z,296.90
2022-12-19T12:49:03.179Z,284.90
2022-12-19T12:50:03.071Z,298.40
2022-12-19T12:51:03.043Z,298.90
2022-12-19T12:52:02.956Z,299.10
2022-12-19T12:53:02.870Z,256.50
2022-12-19T12:54:02.867Z,265.30
2022-12-19T12:55:02.776Z,256.10
2022-12-19T12:56:02.965Z,266.20
2022-12-19T12:57:02.637Z,281.70
2022-12-19T12:58:02.563Z,297.30
2022-12-19T12:59:02.511Z,246.50
2022-12-19T13:00:03.086Z,249.10
2022-12-19T13:01:23.510Z,274.30
2022-12-19T13:02:02.496Z,231.50
2022-12-19T13:03:02.300Z,253.30
2022-12-19T13:04:02.180Z,253.30
2022-12-19T13:05:02.134Z,247.30
2022-12-19T13:06:23.025Z,243.50
2022-12-19T13:07:01.989Z,248.80
2022-12-19T13:08:01.941Z,229.30
2022-12-19T13:09:01.831Z,224.90
2022-12-19T13:10:02.584Z,245.20
2022-12-19T13:11:01.700Z,236.00
2022-12-19T13:12:01.716Z,233.40
2022-12-19T13:13:01.643Z,210.00
2022-12-19T13:14:01.528Z,225.10
2022-12-19T13:15:01.490Z,206.30
2022-12-19T13:16:01.395Z,214.40
2022-12-19T13:17:01.392Z,227.80
2022-12-19T13:18:01.285Z,213.80
2022-12-19T13:19:01.226Z,217.90
2022-12-19T13:20:01.143Z,234.30
2022-12-19T13:21:01.078Z,208.20
2022-12-19T13:22:01.007Z,211.70
2022-12-19T13:23:00.929Z,207.00
2022-12-19T13:24:21.894Z,218.20
2022-12-19T13:25:00.849Z,226.60